sensor_id;sensor_type;location;lat;lon;timestamp;pressure;altitude;pressure_sealevel;temperature;humidity
28606;BME280;46498;49.968;7.754;2022-11-15T00:04:46;96669.00;;;8.53;100.00
28606;BME280;46498;49.968;7.754;2022-11-15T00:10:06;96664.00;;;8.47;100.00
28606;BME280;46498;49.968;7.754;2022-11-15T00:15:26;96660.00;;;8.37;100.00
28606;BME280;46498;49.968;7.754;2022-11-15T00:20:46;96658.00;;;8.31;100.00
28606;BME280;46498;49.968;7.754;2022-11-15T00:26:05;96679.00;;;8.30;100.00
28606;BME280;46498;49.968;7.754;2022-11-15T00:31:25;96673.00;;;8.07;100.00
28606;BME280;46498;49.968;7.754;2022-11-15T00:36:44;96671.00;;;8.21;100.00
28606;BME280;46498;49.968;7.754;2022-11-15T00:42:04;96674.00;;;8.06;100.00
28606;BME280;46498;49.968;7.754;2022-11-15T00:47:23;96673.00;;;8.19;100.00
28606;BME280;46498;49.968;7.754;2022-11-15T00:52:43;96663.00;;;8.26;100.00
28606;BME280;46498;49.968;7.754;2022-11-15T00:58:03;96662.00;;;8.19;100.00
28606;BME280;46498;49.968;7.754;2022-11-15T01:03:22;96654.00;;;8.19;100.00
28606;BME280;46498;49.968;7.754;2022-11-15T01:08:42;96664.00;;;8.20;100.00
28606;BME280;46498;49.968;7.754;2022-11-15T01:14:02;96656.00;;;8.13;100.00
28606;BME280;46498;49.968;7.754;2022-11-15T01:19:21;96661.00;;;8.18;100.00
28606;BME280;46498;49.968;7.754;2022-11-15T01:24:41;96648.00;;;8.17;100.00
28606;BME280;46498;49.968;7.754;2022-11-15T01:30:00;96640.00;;;8.27;100.00
28606;BME280;46498;49.968;7.754;2022-11-15T01:35:21;96643.00;;;8.27;100.00
28606;BME280;46498;49.968;7.754;2022-11-15T01:40:40;96632.00;;;8.36;100.00
28606;BME280;46498;49.968;7.754;2022-11-15T01:46:24;96627.00;;;8.42;100.00
28606;BME280;46498;49.968;7.754;2022-11-15T01:51:44;96630.00;;;8.40;100.00
28606;BME280;46498;49.968;7.754;2022-11-15T01:57:08;96629.00;;;8.38;100.00
28606;BME280;46498;49.968;7.754;2022-11-15T02:02:28;96626.00;;;8.48;100.00
28606;BME280;46498;49.968;7.754;2022-11-15T02:07:48;96620.00;;;8.37;100.00
28606;BME280;46498;49.968;7.754;2022-11-15T02:13:08;96614.00;;;8.42;100.00
28606;BME280;46498;49.968;7.754;2022-11-15T02:18:33;96614.00;;;8.53;100.00
28606;BME280;46498;49.968;7.754;2022-11-15T02:40:56;96598.00;;;8.58;100.00
28606;BME280;46498;49.968;7.754;2022-11-15T02:46:33;96584.00;;;8.56;100.00
28606;BME280;46498;49.968;7.754;2022-11-15T02:52:19;96568.00;;;8.46;100.00
28606;BME280;46498;49.968;7.754;2022-11-15T02:57:52;96566.00;;;8.57;100.00
28606;BME280;46498;49.968;7.754;2022-11-15T03:10:35;96553.00;;;8.61;100.00
28606;BME280;46498;49.968;7.754;2022-11-15T03:16:19;96557.00;;;8.71;100.00
28606;BME280;46498;49.968;7.754;2022-11-15T03:21:42;96554.00;;;8.70;100.00
28606;BME280;46498;49.968;7.754;2022-11-15T03:27:06;96559.00;;;8.70;100.00
28606;BME280;46498;49.968;7.754;2022-11-15T03:32:31;96558.00;;;8.78;100.00
28606;BME280;46498;49.968;7.754;2022-11-15T03:45:17;96563.00;;;8.92;100.00
28606;BME280;46498;49.968;7.754;2022-11-15T03:50:42;96554.00;;;9.03;100.00
28606;BME280;46498;49.968;7.754;2022-11-15T03:56:03;96553.00;;;8.98;100.00
28606;BME280;46498;49.968;7.754;2022-11-15T04:01:22;96559.00;;;9.09;100.00
28606;BME280;46498;49.968;7.754;2022-11-15T04:06:42;96566.00;;;8.97;100.00
28606;BME280;46498;49.968;7.754;2022-11-15T04:12:02;96572.00;;;8.96;100.00
28606;BME280;46498;49.968;7.754;2022-11-15T04:17:22;96571.00;;;8.86;100.00
28606;BME280;46498;49.968;7.754;2022-11-15T04:22:41;96568.00;;;8.76;100.00
28606;BME280;46498;49.968;7.754;2022-11-15T04:28:19;96565.00;;;8.79;100.00
28606;BME280;46498;49.968;7.754;2022-11-15T04:33:39;96552.00;;;8.67;100.00
28606;BME280;46498;49.968;7.754;2022-11-15T04:38:58;96554.00;;;8.68;100.00
28606;BME280;46498;49.968;7.754;2022-11-15T04:44:18;96546.00;;;8.63;100.00
28606;BME280;46498;49.968;7.754;2022-11-15T04:49:38;96544.00;;;8.58;100.00
28606;BME280;46498;49.968;7.754;2022-11-15T04:54:57;96536.00;;;8.60;100.00
28606;BME280;46498;49.968;7.754;2022-11-15T05:00:17;96523.00;;;8.64;100.00
28606;BME280;46498;49.968;7.754;2022-11-15T05:05:36;96516.00;;;8.60;100.00
28606;BME280;46498;49.968;7.754;2022-11-15T05:10:56;96519.00;;;8.56;100.00
28606;BME280;46498;49.968;7.754;2022-11-15T05:16:15;96517.00;;;8.52;100.00
28606;BME280;46498;49.968;7.754;2022-11-15T05:21:35;96528.00;;;8.58;100.00
28606;BME280;46498;49.968;7.754;2022-11-15T05:26:55;96532.00;;;8.57;100.00
28606;BME280;46498;49.968;7.754;2022-11-15T05:32:16;96538.00;;;8.65;100.00
28606;BME280;46498;49.968;7.754;2022-11-15T05:37:36;96520.00;;;8.58;100.00
28606;BME280;46498;49.968;7.754;2022-11-15T05:42:56;96519.00;;;8.67;100.00
28606;BME280;46498;49.968;7.754;2022-11-15T05:48:16;96519.00;;;8.74;100.00
28606;BME280;46498;49.968;7.754;2022-11-15T05:53:36;96505.00;;;8.68;100.00
28606;BME280;46498;49.968;7.754;2022-11-15T05:58:57;96509.00;;;8.66;100.00
28606;BME280;46498;49.968;7.754;2022-11-15T06:04:19;96513.00;;;8.74;100.00
28606;BME280;46498;49.968;7.754;2022-11-15T06:09:39;96514.00;;;8.74;100.00
28606;BME280;46498;49.968;7.754;2022-11-15T06:14:58;96528.00;;;8.68;100.00
28606;BME280;46498;49.968;7.754;2022-11-15T06:20:18;96524.00;;;8.75;100.00
28606;BME280;46498;49.968;7.754;2022-11-15T06:25:37;96522.00;;;8.60;100.00
28606;BME280;46498;49.968;7.754;2022-11-15T06:31:05;96529.00;;;8.63;100.00
28606;BME280;46498;49.968;7.754;2022-11-15T06:36:25;96530.00;;;8.65;100.00
28606;BME280;46498;49.968;7.754;2022-11-15T06:41:45;96536.00;;;8.62;100.00
28606;BME280;46498;49.968;7.754;2022-11-15T06:47:04;96520.00;;;8.57;100.00
28606;BME280;46498;49.968;7.754;2022-11-15T06:52:24;96532.00;;;8.47;100.00
28606;BME280;46498;49.968;7.754;2022-11-15T06:57:48;96527.00;;;8.51;100.00
28606;BME280;46498;49.968;7.754;2022-11-15T07:03:08;96524.00;;;8.45;100.00
28606;BME280;46498;49.968;7.754;2022-11-15T07:08:28;96521.00;;;8.47;100.00
28606;BME280;46498;49.968;7.754;2022-11-15T07:13:48;96521.00;;;8.51;100.00
28606;BME280;46498;49.968;7.754;2022-11-15T07:19:08;96521.00;;;8.60;100.00
28606;BME280;46498;49.968;7.754;2022-11-15T07:24:29;96535.00;;;8.53;100.00
28606;BME280;46498;49.968;7.754;2022-11-15T07:29:48;96541.00;;;8.56;100.00
28606;BME280;46498;49.968;7.754;2022-11-15T07:35:08;96536.00;;;8.58;100.00
28606;BME280;46498;49.968;7.754;2022-11-15T07:40:30;96545.00;;;8.48;100.00
28606;BME280;46498;49.968;7.754;2022-11-15T07:45:50;96538.00;;;8.48;100.00
28606;BME280;46498;49.968;7.754;2022-11-15T07:51:17;96528.00;;;8.59;100.00
28606;BME280;46498;49.968;7.754;2022-11-15T07:56:37;96527.00;;;8.51;100.00
28606;BME280;46498;49.968;7.754;2022-11-15T08:01:58;96535.00;;;8.63;100.00
28606;BME280;46498;49.968;7.754;2022-11-15T08:07:18;96537.00;;;8.71;100.00
28606;BME280;46498;49.968;7.754;2022-11-15T08:12:37;96535.00;;;8.77;100.00
28606;BME280;46498;49.968;7.754;2022-11-15T08:17:59;96530.00;;;8.84;100.00
28606;BME280;46498;49.968;7.754;2022-11-15T08:23:19;96535.00;;;8.88;100.00
28606;BME280;46498;49.968;7.754;2022-11-15T08:28:39;96539.00;;;8.83;100.00
28606;BME280;46498;49.968;7.754;2022-11-15T08:34:00;96546.00;;;8.84;100.00
28606;BME280;46498;49.968;7.754;2022-11-15T08:39:19;96545.00;;;8.91;100.00
28606;BME280;46498;49.968;7.754;2022-11-15T08:44:39;96545.00;;;8.91;100.00
28606;BME280;46498;49.968;7.754;2022-11-15T08:49:58;96539.00;;;9.08;100.00
28606;BME280;46498;49.968;7.754;2022-11-15T08:55:18;96530.00;;;9.06;100.00
28606;BME280;46498;49.968;7.754;2022-11-15T09:00:38;96527.00;;;8.93;100.00
28606;BME280;46498;49.968;7.754;2022-11-15T09:05:59;96533.00;;;9.09;100.00
28606;BME280;46498;49.968;7.754;2022-11-15T09:11:19;96519.00;;;9.11;100.00
28606;BME280;46498;49.968;7.754;2022-11-15T09:16:41;96506.00;;;9.14;100.00
28606;BME280;46498;49.968;7.754;2022-11-15T09:22:01;96508.00;;;9.19;100.00
28606;BME280;46498;49.968;7.754;2022-11-15T09:27:20;96499.00;;;9.38;100.00
28606;BME280;46498;49.968;7.754;2022-11-15T09:32:39;96500.00;;;9.42;100.00
28606;BME280;46498;49.968;7.754;2022-11-15T09:37:59;96509.00;;;9.48;100.00
28606;BME280;46498;49.968;7.754;2022-11-15T09:50:32;96518.00;;;9.75;100.00
28606;BME280;46498;49.968;7.754;2022-11-15T09:55:46;96509.00;;;9.64;100.00
28606;BME280;46498;49.968;7.754;2022-11-15T10:00:51;96503.00;;;9.42;100.00
28606;BME280;46498;49.968;7.754;2022-11-15T10:05:56;96504.00;;;9.48;100.00
28606;BME280;46498;49.968;7.754;2022-11-15T10:11:01;96490.00;;;9.32;100.00
28606;BME280;46498;49.968;7.754;2022-11-15T10:25:18;96466.00;;;9.31;100.00
28606;BME280;46498;49.968;7.754;2022-11-15T10:30:23;96459.00;;;9.53;100.00
28606;BME280;46498;49.968;7.754;2022-11-15T10:35:29;96459.00;;;9.44;100.00
28606;BME280;46498;49.968;7.754;2022-11-15T10:40:31;96448.00;;;9.49;100.00
28606;BME280;46498;49.968;7.754;2022-11-15T10:45:33;96428.00;;;9.59;100.00
28606;BME280;46498;49.968;7.754;2022-11-15T10:50:34;96426.00;;;9.65;100.00
28606;BME280;46498;49.968;7.754;2022-11-15T10:55:46;96417.00;;;9.91;100.00
28606;BME280;46498;49.968;7.754;2022-11-15T11:00:48;96404.00;;;9.67;100.00
28606;BME280;46498;49.968;7.754;2022-11-15T11:06:03;96405.00;;;9.62;100.00
28606;BME280;46498;49.968;7.754;2022-11-15T11:11:05;96399.00;;;9.92;100.00
28606;BME280;46498;49.968;7.754;2022-11-15T11:16:44;96398.00;;;10.10;100.00
28606;BME280;46498;49.968;7.754;2022-11-15T11:24:58;96394.00;;;10.25;100.00
28606;BME280;46498;49.968;7.754;2022-11-15T11:30:06;96397.00;;;10.29;100.00
28606;BME280;46498;49.968;7.754;2022-11-15T11:36:38;96386.00;;;10.26;100.00
28606;BME280;46498;49.968;7.754;2022-11-15T11:41:59;96382.00;;;10.09;100.00
28606;BME280;46498;49.968;7.754;2022-11-15T11:47:23;96375.00;;;10.08;100.00
28606;BME280;46498;49.968;7.754;2022-11-15T11:52:33;96363.00;;;10.10;100.00
28606;BME280;46498;49.968;7.754;2022-11-15T12:00:17;96359.00;;;10.24;100.00
28606;BME280;46498;49.968;7.754;2022-11-15T12:17:29;96343.00;;;10.08;100.00
28606;BME280;46498;49.968;7.754;2022-11-15T12:22:44;96335.00;;;10.03;100.00
28606;BME280;46498;49.968;7.754;2022-11-15T12:33:39;96319.00;;;10.05;100.00
28606;BME280;46498;49.968;7.754;2022-11-15T12:38:54;96313.00;;;10.15;100.00
28606;BME280;46498;49.968;7.754;2022-11-15T12:43:57;96300.00;;;10.18;100.00
28606;BME280;46498;49.968;7.754;2022-11-15T12:57:41;96284.00;;;10.39;100.00
28606;BME280;46498;49.968;7.754;2022-11-15T13:02:43;96263.00;;;10.27;100.00
28606;BME280;46498;49.968;7.754;2022-11-15T13:08:03;96257.00;;;10.32;100.00
28606;BME280;46498;49.968;7.754;2022-11-15T13:13:08;96238.00;;;10.25;100.00
28606;BME280;46498;49.968;7.754;2022-11-15T13:18:28;96247.00;;;10.36;100.00
28606;BME280;46498;49.968;7.754;2022-11-15T13:23:30;96239.00;;;10.19;100.00
28606;BME280;46498;49.968;7.754;2022-11-15T13:28:39;96236.00;;;10.29;100.00
28606;BME280;46498;49.968;7.754;2022-11-15T13:33:42;96227.00;;;10.40;100.00
28606;BME280;46498;49.968;7.754;2022-11-15T13:38:43;96229.00;;;10.47;100.00
28606;BME280;46498;49.968;7.754;2022-11-15T13:43:44;96217.00;;;10.42;100.00
28606;BME280;46498;49.968;7.754;2022-11-15T13:48:50;96206.00;;;10.48;100.00
28606;BME280;46498;49.968;7.754;2022-11-15T13:53:56;96197.00;;;10.53;100.00
28606;BME280;46498;49.968;7.754;2022-11-15T13:58:58;96178.00;;;10.51;100.00
28606;BME280;46498;49.968;7.754;2022-11-15T14:04:00;96180.00;;;10.38;100.00
28606;BME280;46498;49.968;7.754;2022-11-15T14:15:34;96167.00;;;10.40;100.00
28606;BME280;46498;49.968;7.754;2022-11-15T14:20:38;96147.00;;;10.54;100.00
28606;BME280;46498;49.968;7.754;2022-11-15T14:25:39;96138.00;;;10.15;100.00
28606;BME280;46498;49.968;7.754;2022-11-15T14:30:42;96126.00;;;10.05;100.00
28606;BME280;46498;49.968;7.754;2022-11-15T14:35:43;96124.00;;;10.02;100.00
28606;BME280;46498;49.968;7.754;2022-11-15T14:40:44;96112.00;;;9.84;100.00
28606;BME280;46498;49.968;7.754;2022-11-15T14:45:45;96099.00;;;9.80;100.00
28606;BME280;46498;49.968;7.754;2022-11-15T14:50:46;96101.00;;;9.82;100.00
28606;BME280;46498;49.968;7.754;2022-11-15T14:55:47;96090.00;;;9.76;100.00
28606;BME280;46498;49.968;7.754;2022-11-15T15:00:48;96090.00;;;9.59;100.00
28606;BME280;46498;49.968;7.754;2022-11-15T15:05:49;96080.00;;;9.60;100.00
28606;BME280;46498;49.968;7.754;2022-11-15T15:10:49;96083.00;;;9.60;100.00
28606;BME280;46498;49.968;7.754;2022-11-15T15:15:53;96085.00;;;9.48;100.00
28606;BME280;46498;49.968;7.754;2022-11-15T15:20:59;96084.00;;;9.59;100.00
28606;BME280;46498;49.968;7.754;2022-11-15T15:26:03;96079.00;;;9.48;100.00
28606;BME280;46498;49.968;7.754;2022-11-15T15:31:04;96074.00;;;9.50;100.00
28606;BME280;46498;49.968;7.754;2022-11-15T15:36:10;96065.00;;;9.49;100.00
28606;BME280;46498;49.968;7.754;2022-11-15T15:41:13;96055.00;;;9.40;100.00
28606;BME280;46498;49.968;7.754;2022-11-15T15:46:16;96056.00;;;9.37;100.00
28606;BME280;46498;49.968;7.754;2022-11-15T15:51:18;96051.00;;;9.46;100.00
28606;BME280;46498;49.968;7.754;2022-11-15T15:56:21;96053.00;;;9.40;100.00
28606;BME280;46498;49.968;7.754;2022-11-15T16:01:22;96048.00;;;9.40;100.00
28606;BME280;46498;49.968;7.754;2022-11-15T16:06:38;96039.00;;;9.43;100.00
28606;BME280;46498;49.968;7.754;2022-11-15T16:11:41;96034.00;;;9.38;100.00
28606;BME280;46498;49.968;7.754;2022-11-15T16:16:42;96033.00;;;9.43;100.00
28606;BME280;46498;49.968;7.754;2022-11-15T16:21:42;96032.00;;;9.35;100.00
28606;BME280;46498;49.968;7.754;2022-11-15T16:26:44;96030.00;;;9.37;100.00
28606;BME280;46498;49.968;7.754;2022-11-15T16:31:46;96028.00;;;9.38;100.00
28606;BME280;46498;49.968;7.754;2022-11-15T16:36:47;96022.00;;;9.38;100.00
28606;BME280;46498;49.968;7.754;2022-11-15T16:41:48;96015.00;;;9.40;100.00
28606;BME280;46498;49.968;7.754;2022-11-15T16:46:49;96011.00;;;9.41;100.00
28606;BME280;46498;49.968;7.754;2022-11-15T16:51:51;96013.00;;;9.37;100.00
28606;BME280;46498;49.968;7.754;2022-11-15T16:56:52;96013.00;;;9.44;100.00
28606;BME280;46498;49.968;7.754;2022-11-15T17:01:53;96009.00;;;9.38;100.00
28606;BME280;46498;49.968;7.754;2022-11-15T17:06:54;96015.00;;;9.37;100.00
28606;BME280;46498;49.968;7.754;2022-11-15T17:11:55;96009.00;;;9.38;100.00
28606;BME280;46498;49.968;7.754;2022-11-15T17:16:56;96009.00;;;9.45;100.00
28606;BME280;46498;49.968;7.754;2022-11-15T17:21:57;95994.00;;;9.47;100.00
28606;BME280;46498;49.968;7.754;2022-11-15T17:26:58;96000.00;;;9.48;100.00
28606;BME280;46498;49.968;7.754;2022-11-15T17:31:58;95990.00;;;9.45;100.00
28606;BME280;46498;49.968;7.754;2022-11-15T17:36:59;95998.00;;;9.48;100.00
28606;BME280;46498;49.968;7.754;2022-11-15T17:42:00;95981.00;;;9.43;100.00
28606;BME280;46498;49.968;7.754;2022-11-15T17:47:01;95976.00;;;9.38;100.00
28606;BME280;46498;49.968;7.754;2022-11-15T17:52:02;95985.00;;;9.36;100.00
28606;BME280;46498;49.968;7.754;2022-11-15T17:57:03;95972.00;;;9.30;100.00
28606;BME280;46498;49.968;7.754;2022-11-15T18:02:04;95967.00;;;9.37;100.00
28606;BME280;46498;49.968;7.754;2022-11-15T18:07:05;95971.00;;;9.49;100.00
28606;BME280;46498;49.968;7.754;2022-11-15T18:12:06;95959.00;;;9.48;100.00
28606;BME280;46498;49.968;7.754;2022-11-15T18:17:07;95950.00;;;9.49;100.00
28606;BME280;46498;49.968;7.754;2022-11-15T18:22:08;95949.00;;;9.43;100.00
28606;BME280;46498;49.968;7.754;2022-11-15T18:27:09;95953.00;;;9.41;100.00
28606;BME280;46498;49.968;7.754;2022-11-15T18:32:10;95948.00;;;9.39;100.00
28606;BME280;46498;49.968;7.754;2022-11-15T18:37:14;95944.00;;;9.36;100.00
28606;BME280;46498;49.968;7.754;2022-11-15T18:42:15;95949.00;;;9.43;100.00
28606;BME280;46498;49.968;7.754;2022-11-15T18:47:16;95943.00;;;9.44;100.00
28606;BME280;46498;49.968;7.754;2022-11-15T18:52:17;95932.00;;;9.46;100.00
28606;BME280;46498;49.968;7.754;2022-11-15T18:57:17;95939.00;;;9.45;100.00
28606;BME280;46498;49.968;7.754;2022-11-15T19:02:18;95933.00;;;9.35;100.00
28606;BME280;46498;49.968;7.754;2022-11-15T19:07:19;95924.00;;;9.38;100.00
28606;BME280;46498;49.968;7.754;2022-11-15T19:12:21;95922.00;;;9.38;100.00
28606;BME280;46498;49.968;7.754;2022-11-15T19:17:21;95917.00;;;9.45;100.00
28606;BME280;46498;49.968;7.754;2022-11-15T19:22:22;95905.00;;;9.31;100.00
28606;BME280;46498;49.968;7.754;2022-11-15T19:27:23;95907.00;;;9.19;100.00
28606;BME280;46498;49.968;7.754;2022-11-15T19:32:24;95909.00;;;9.38;100.00
28606;BME280;46498;49.968;7.754;2022-11-15T19:37:25;95897.00;;;9.38;100.00
28606;BME280;46498;49.968;7.754;2022-11-15T19:42:25;95897.00;;;9.25;100.00
28606;BME280;46498;49.968;7.754;2022-11-15T19:47:26;95887.00;;;9.29;100.00
28606;BME280;46498;49.968;7.754;2022-11-15T19:52:28;95877.00;;;9.23;100.00
28606;BME280;46498;49.968;7.754;2022-11-15T19:57:28;95875.00;;;9.18;100.00
28606;BME280;46498;49.968;7.754;2022-11-15T20:02:29;95876.00;;;9.17;100.00
28606;BME280;46498;49.968;7.754;2022-11-15T20:07:30;95870.00;;;9.17;100.00
28606;BME280;46498;49.968;7.754;2022-11-15T20:12:31;95862.00;;;9.15;100.00
28606;BME280;46498;49.968;7.754;2022-11-15T20:17:34;95872.00;;;9.16;100.00
28606;BME280;46498;49.968;7.754;2022-11-15T20:22:35;95856.00;;;9.16;100.00
28606;BME280;46498;49.968;7.754;2022-11-15T20:27:35;95852.00;;;9.12;100.00
28606;BME280;46498;49.968;7.754;2022-11-15T20:32:36;95842.00;;;9.12;100.00
28606;BME280;46498;49.968;7.754;2022-11-15T20:37:37;95840.00;;;9.03;100.00
28606;BME280;46498;49.968;7.754;2022-11-15T20:42:38;95834.00;;;9.09;100.00
28606;BME280;46498;49.968;7.754;2022-11-15T20:47:39;95823.00;;;9.02;100.00
28606;BME280;46498;49.968;7.754;2022-11-15T20:52:39;95828.00;;;9.00;100.00
28606;BME280;46498;49.968;7.754;2022-11-15T20:57:40;95813.00;;;9.01;100.00
28606;BME280;46498;49.968;7.754;2022-11-15T21:02:41;95820.00;;;8.97;100.00
28606;BME280;46498;49.968;7.754;2022-11-15T21:07:42;95823.00;;;9.04;100.00
28606;BME280;46498;49.968;7.754;2022-11-15T21:12:43;95805.00;;;8.97;100.00
28606;BME280;46498;49.968;7.754;2022-11-15T21:17:44;95808.00;;;8.88;100.00
28606;BME280;46498;49.968;7.754;2022-11-15T21:22:45;95796.00;;;9.02;100.00
28606;BME280;46498;49.968;7.754;2022-11-15T21:27:46;95798.00;;;8.90;100.00
28606;BME280;46498;49.968;7.754;2022-11-15T21:32:47;95790.00;;;8.95;100.00
28606;BME280;46498;49.968;7.754;2022-11-15T21:37:48;95786.00;;;8.90;100.00
28606;BME280;46498;49.968;7.754;2022-11-15T21:42:57;95784.00;;;8.83;100.00
28606;BME280;46498;49.968;7.754;2022-11-15T21:47:57;95775.00;;;8.76;100.00
28606;BME280;46498;49.968;7.754;2022-11-15T21:52:58;95770.00;;;8.80;100.00
28606;BME280;46498;49.968;7.754;2022-11-15T21:57:59;95764.00;;;8.79;100.00
28606;BME280;46498;49.968;7.754;2022-11-15T22:03:00;95765.00;;;9.00;100.00
28606;BME280;46498;49.968;7.754;2022-11-15T22:08:01;95760.00;;;8.96;100.00
28606;BME280;46498;49.968;7.754;2022-11-15T22:13:01;95753.00;;;8.94;100.00
28606;BME280;46498;49.968;7.754;2022-11-15T22:18:03;95739.00;;;8.97;100.00
28606;BME280;46498;49.968;7.754;2022-11-15T22:23:04;95739.00;;;8.97;100.00
28606;BME280;46498;49.968;7.754;2022-11-15T22:28:06;95741.00;;;8.95;100.00
28606;BME280;46498;49.968;7.754;2022-11-15T22:33:07;95736.00;;;8.98;100.00
28606;BME280;46498;49.968;7.754;2022-11-15T22:38:08;95725.00;;;8.99;100.00
28606;BME280;46498;49.968;7.754;2022-11-15T22:43:14;95716.00;;;9.00;100.00
28606;BME280;46498;49.968;7.754;2022-11-15T22:48:16;95725.00;;;9.04;100.00
28606;BME280;46498;49.968;7.754;2022-11-15T22:53:18;95717.00;;;8.95;100.00
28606;BME280;46498;49.968;7.754;2022-11-15T22:58:20;95715.00;;;8.96;100.00
28606;BME280;46498;49.968;7.754;2022-11-15T23:03:22;95708.00;;;8.95;100.00
28606;BME280;46498;49.968;7.754;2022-11-15T23:08:23;95709.00;;;9.02;100.00
28606;BME280;46498;49.968;7.754;2022-11-15T23:13:26;95699.00;;;8.94;100.00
28606;BME280;46498;49.968;7.754;2022-11-15T23:18:28;95698.00;;;9.09;100.00
28606;BME280;46498;49.968;7.754;2022-11-15T23:23:33;95701.00;;;9.07;100.00
28606;BME280;46498;49.968;7.754;2022-11-15T23:28:35;95701.00;;;9.07;100.00
28606;BME280;46498;49.968;7.754;2022-11-15T23:33:36;95687.00;;;8.95;100.00
28606;BME280;46498;49.968;7.754;2022-11-15T23:38:57;95689.00;;;8.91;100.00
28606;BME280;46498;49.968;7.754;2022-11-15T23:43:58;95694.00;;;8.85;100.00
28606;BME280;46498;49.968;7.754;2022-11-15T23:48:59;95691.00;;;8.83;100.00
28606;BME280;46498;49.968;7.754;2022-11-15T23:54:00;95680.00;;;8.85;100.00
28606;BME280;46498;49.968;7.754;2022-11-15T23:59:04;95687.00;;;8.88;100.00
